createdAt,value
2022-09-09T00:02:28.357Z,100403.78
2022-09-09T00:05:41.894Z,100399.78
2022-09-09T00:08:16.262Z,100394.69
2022-09-09T00:10:43.174Z,100398.34
2022-09-09T00:13:25.533Z,100405.09
2022-09-09T00:16:29.300Z,100397.97
2022-09-09T00:19:25.297Z,100394.34
2022-09-09T00:22:21.386Z,100396.59
2022-09-09T00:24:57.385Z,100390.44
2022-09-09T00:27:38.954Z,100385.41
2022-09-09T00:30:32.749Z,100394.72
2022-09-09T00:33:13.704Z,100386.63
2022-09-09T00:35:49.102Z,100390.69
2022-09-09T00:38:52.256Z,100394.72
2022-09-09T00:42:00.222Z,100391.09
2022-09-09T00:44:38.102Z,100390.44
2022-09-09T00:47:50.441Z,100391.56
2022-09-09T00:50:56.268Z,100384.19
2022-09-09T00:53:58.692Z,100381.38
2022-09-09T00:57:01.255Z,100382.34
2022-09-09T01:00:06.373Z,100384.34
2022-09-09T01:02:53.821Z,100398.53
2022-09-09T01:06:06.059Z,100396.34
2022-09-09T01:09:02.145Z,100393.06
2022-09-09T01:12:15.989Z,100403.41
2022-09-09T01:14:52.981Z,100405.31
2022-09-09T01:17:45.319Z,100404.31
2022-09-09T01:20:31.124Z,100405.44
2022-09-09T01:23:35.577Z,100397.94
2022-09-09T01:26:31.680Z,100400.81
2022-09-09T01:28:58.869Z,100400.59
2022-09-09T01:31:43.795Z,100406.16
2022-09-09T01:34:16.454Z,100406.03
2022-09-09T01:37:08.157Z,100399.84
2022-09-09T01:39:38.463Z,100397.34
2022-09-09T01:42:10.113Z,100393.97
2022-09-09T01:44:38.963Z,100401.91
2022-09-09T01:47:07.094Z,100404.59
2022-09-09T01:49:34.066Z,100403.81
2022-09-09T01:52:02.021Z,100404.88
2022-09-09T01:54:33.522Z,100400.59
2022-09-09T01:57:28.237Z,100405.56
2022-09-09T02:00:14.551Z,100405.50
2022-09-09T02:03:26.073Z,100405.28
2022-09-09T02:06:27.350Z,100399.94
2022-09-09T02:08:58.530Z,100408.66
2022-09-09T02:11:29.793Z,100405.66
2022-09-09T02:14:11.081Z,100408.19
2022-09-09T02:16:52.853Z,100420.66
2022-09-09T02:19:28.729Z,100417.63
2022-09-09T02:21:59.747Z,100413.66
2022-09-09T02:24:30.807Z,100411.47
2022-09-09T02:26:59.776Z,100413.94
2022-09-09T02:29:36.822Z,100413.41
2022-09-09T02:32:10.034Z,100419.34
2022-09-09T02:34:45.446Z,100424.22
2022-09-09T02:37:14.919Z,100422.44
2022-09-09T02:39:41.918Z,100417.63
2022-09-09T02:42:09.387Z,100414.50
2022-09-09T02:44:40.278Z,100414.81
2022-09-09T02:48:10.346Z,100415.13
2022-09-09T02:50:54.679Z,100413.31
2022-09-09T02:53:39.975Z,100411.38
2022-09-09T02:56:20.823Z,100417.59
2022-09-09T02:58:50.336Z,100422.03
2022-09-09T03:01:18.191Z,100419.69
2022-09-09T03:03:45.418Z,100421.06
2022-09-09T03:06:12.821Z,100420.38
2022-09-09T03:08:39.795Z,100420.38
2022-09-09T03:11:07.039Z,100411.84
2022-09-09T03:13:34.691Z,100413.19
2022-09-09T03:16:01.665Z,100414.28
2022-09-09T03:18:29.125Z,100410.66
2022-09-09T03:20:56.355Z,100426.53
2022-09-09T03:23:23.862Z,100423.66
2022-09-09T03:25:52.205Z,100427.13
2022-09-09T03:28:19.589Z,100431.56
2022-09-09T03:30:46.546Z,100437.75
2022-09-09T03:33:13.648Z,100430.59
2022-09-09T03:35:47.095Z,100444.41
2022-09-09T03:38:14.014Z,100438.31
2022-09-09T03:40:49.635Z,100438.06
2022-09-09T03:43:17.561Z,100440.69
2022-09-09T03:45:50.571Z,100433.50
2022-09-09T03:48:21.431Z,100438.03
2022-09-09T03:50:52.233Z,100446.31
2022-09-09T03:53:25.573Z,100442.31
2022-09-09T03:55:56.858Z,100444.38
2022-09-09T03:58:27.665Z,100449.63
2022-09-09T04:01:00.831Z,100448.78
2022-09-09T04:03:29.328Z,100445.13
2022-09-09T04:05:59.769Z,100449.88
2022-09-09T04:08:27.781Z,100448.25
2022-09-09T04:10:58.791Z,100448.84
2022-09-09T04:13:27.312Z,100447.69
2022-09-09T04:16:00.886Z,100441.63
2022-09-09T04:18:31.426Z,100444.56
2022-09-09T04:20:59.095Z,100438.09
2022-09-09T04:23:30.453Z,100438.06
2022-09-09T04:26:00.166Z,100433.97
2022-09-09T04:28:31.107Z,100427.97
2022-09-09T04:31:04.371Z,100442.06
2022-09-09T04:33:35.963Z,100442.31
2022-09-09T04:36:05.973Z,100442.16
2022-09-09T04:38:33.013Z,100433.59
2022-09-09T04:41:00.069Z,100451.50
2022-09-09T04:43:27.074Z,100452.78
2022-09-09T04:45:54.616Z,100456.94
2022-09-09T04:48:22.326Z,100462.09
2022-09-09T04:51:15.819Z,100459.88
2022-09-09T04:53:42.818Z,100462.84
2022-09-09T04:56:14.934Z,100464.63
2022-09-09T04:58:46.420Z,100466.44
2022-09-09T05:01:19.189Z,100463.41
2022-09-09T05:03:47.026Z,100470.03
2022-09-09T05:06:18.107Z,100468.09
2022-09-09T05:08:46.296Z,100468.47
2022-09-09T05:11:30.870Z,100478.53
2022-09-09T05:13:58.028Z,100476.19
2022-09-09T05:16:25.040Z,100474.63
2022-09-09T05:18:52.243Z,100478.97
2022-09-09T05:21:22.340Z,100476.19
2022-09-09T05:23:49.723Z,100479.47
2022-09-09T05:26:21.297Z,100472.91
2022-09-09T05:28:48.878Z,100468.06
2022-09-09T05:31:19.237Z,100474.09
2022-09-09T05:33:49.115Z,100478.16
2022-09-09T05:36:21.861Z,100480.84
2022-09-09T05:38:50.813Z,100479.25
2022-09-09T05:41:18.384Z,100487.59
2022-09-09T05:43:46.552Z,100477.06
2022-09-09T05:46:25.164Z,100481.13
2022-09-09T05:48:54.322Z,100482.25
2022-09-09T05:51:31.272Z,100485.59
2022-09-09T05:54:01.198Z,100480.44
2022-09-09T05:56:30.331Z,100480.44
2022-09-09T05:58:57.963Z,100483.16
2022-09-09T06:01:35.374Z,100475.19
2022-09-09T06:04:03.736Z,100474.75
2022-09-09T06:06:43.135Z,100476.63
2022-09-09T06:09:11.637Z,100475.81
2022-09-09T06:11:40.953Z,100478.72
2022-09-09T06:14:09.613Z,100489.84
2022-09-09T06:16:40.168Z,100493.44
2022-09-09T06:19:07.443Z,100494.75
2022-09-09T06:21:38.003Z,100492.97
2022-09-09T06:24:08.397Z,100500.75
2022-09-09T06:26:50.003Z,100492.97
2022-09-09T06:29:17.202Z,100499.78
2022-09-09T06:31:59.833Z,100500.81
2022-09-09T06:34:46.404Z,100512.41
2022-09-09T06:37:13.456Z,100505.88
2022-09-09T06:39:40.542Z,100505.19
2022-09-09T06:42:10.211Z,100505.03
2022-09-09T06:44:37.487Z,100502.31
2022-09-09T06:47:04.833Z,100511.59
2022-09-09T06:49:31.809Z,100504.66
2022-09-09T06:51:58.836Z,100508.31
2022-09-09T06:54:29.693Z,100515.22
2022-09-09T06:56:56.776Z,100522.16
2022-09-09T06:59:24.039Z,100515.28
2022-09-09T07:02:03.416Z,100515.69
2022-09-09T07:04:30.687Z,100521.34
2022-09-09T07:06:57.697Z,100519.41
2022-09-09T07:09:28.365Z,100523.13
2022-09-09T07:11:55.595Z,100520.25
2022-09-09T07:14:23.619Z,100519.41
2022-09-09T07:16:50.584Z,100521.78
2022-09-09T07:19:17.845Z,100514.72
2022-09-09T07:22:00.315Z,100519.66
2022-09-09T07:24:31.499Z,100520.50
2022-09-09T07:26:58.462Z,100523.69
2022-09-09T07:29:25.458Z,100512.75
2022-09-09T07:31:52.723Z,100516.56
2022-09-09T07:34:20.323Z,100520.03
2022-09-09T07:36:47.695Z,100506.81
2022-09-09T07:39:19.989Z,100512.91
2022-09-09T07:41:49.261Z,100510.75
2022-09-09T07:44:24.193Z,100519.00
2022-09-09T07:46:51.636Z,100510.69
2022-09-09T07:49:24.436Z,100517.81
2022-09-09T07:51:54.817Z,100520.59
2022-09-09T07:54:24.810Z,100519.91
2022-09-09T07:56:53.644Z,100525.50
2022-09-09T07:59:21.216Z,100526.28
2022-09-09T08:01:54.368Z,100522.78
2022-09-09T08:04:26.094Z,100527.72
2022-09-09T08:06:58.809Z,100516.28
2022-09-09T08:09:32.097Z,100523.75
2022-09-09T08:12:00.931Z,100525.31
2022-09-09T08:14:28.618Z,100525.47
2022-09-09T08:16:59.100Z,100525.66
2022-09-09T08:19:37.046Z,100529.28
2022-09-09T08:22:04.699Z,100521.06
2022-09-09T08:24:32.137Z,100531.63
2022-09-09T08:26:59.140Z,100533.00
2022-09-09T08:29:26.124Z,100523.72
2022-09-09T08:31:58.174Z,100529.72
2022-09-09T08:34:27.884Z,100524.00
2022-09-09T08:36:55.827Z,100535.59
2022-09-09T08:39:23.998Z,100531.25
2022-09-09T08:42:01.586Z,100540.31
2022-09-09T08:44:58.894Z,100548.34
2022-09-09T08:48:10.313Z,100545.22
2022-09-09T08:50:41.755Z,100537.63
2022-09-09T08:53:32.480Z,100547.66
2022-09-09T08:56:07.909Z,100542.84
2022-09-09T08:58:41.741Z,100545.13
2022-09-09T09:01:49.282Z,100548.22
2022-09-09T09:04:52.823Z,100541.66
2022-09-09T09:07:49.998Z,100544.38
2022-09-09T09:10:54.835Z,100553.06
2022-09-09T09:13:49.704Z,100546.78
2022-09-09T09:16:33.292Z,100548.75
2022-09-09T09:19:01.293Z,100543.72
2022-09-09T09:21:33.968Z,100544.59
2022-09-09T09:24:02.564Z,100549.75
2022-09-09T09:26:36.720Z,100552.00
2022-09-09T09:29:20.798Z,100541.19
2022-09-09T09:31:55.692Z,100544.69
2022-09-09T09:34:25.493Z,100551.22
2022-09-09T09:37:02.800Z,100540.94
2022-09-09T09:42:26.653Z,100544.91
2022-09-09T09:44:53.779Z,100548.81
2022-09-09T09:47:27.982Z,100545.16
2022-09-09T09:50:02.123Z,100547.97
2022-09-09T09:52:33.224Z,100551.16
2022-09-09T09:55:07.486Z,100532.22
2022-09-09T09:57:35.416Z,100548.88
2022-09-09T10:00:23.847Z,100549.75
2022-09-09T10:02:57.367Z,100548.06
2022-09-09T10:05:35.833Z,100554.06
2022-09-09T10:08:17.761Z,100547.84
2022-09-09T10:11:00.766Z,100557.69
2022-09-09T10:14:16.088Z,100543.19
2022-09-09T10:17:35.514Z,100539.84
2022-09-09T10:20:36.768Z,100547.91
2022-09-09T10:23:34.809Z,100541.47
2022-09-09T10:26:26.391Z,100540.41
2022-09-09T10:29:34.897Z,100539.78
2022-09-09T10:32:32.330Z,100541.28
2022-09-09T10:35:43.337Z,100543.97
2022-09-09T10:38:27.367Z,100543.06
2022-09-09T10:40:54.339Z,100543.38
2022-09-09T10:44:05.999Z,100544.69
2022-09-09T10:47:09.655Z,100544.69
2022-09-09T10:50:09.478Z,100550.63
2022-09-09T10:53:18.079Z,100558.28
2022-09-09T10:56:07.438Z,100548.50
2022-09-09T10:59:03.243Z,100551.44
2022-09-09T11:01:58.341Z,100552.91
2022-09-09T11:04:45.996Z,100544.69
2022-09-09T11:07:40.453Z,100545.72
2022-09-09T11:10:58.738Z,100546.06
2022-09-09T11:13:55.374Z,100543.19
2022-09-09T11:16:38.039Z,100549.63
2022-09-09T11:19:38.679Z,100551.41
2022-09-09T11:23:18.206Z,100541.97
2022-09-09T11:25:56.912Z,100553.91
2022-09-09T11:29:04.730Z,100548.94
2022-09-09T11:32:19.027Z,100553.28
2022-09-09T11:35:42.398Z,100545.78
2022-09-09T11:38:22.501Z,100558.78
2022-09-09T11:41:06.801Z,100552.28
2022-09-09T11:43:53.083Z,100547.84
2022-09-09T11:46:37.778Z,100553.00
2022-09-09T11:49:08.081Z,100538.59
2022-09-09T11:51:36.388Z,100541.59
2022-09-09T11:54:34.459Z,100538.88
2022-09-09T11:57:03.183Z,100537.88
2022-09-09T11:59:35.877Z,100533.00
2022-09-09T12:02:23.384Z,100529.97
2022-09-09T12:05:07.105Z,100522.19
2022-09-09T12:07:58.104Z,100521.56
2022-09-09T12:10:33.862Z,100523.56
2022-09-09T12:13:32.375Z,100504.38
2022-09-09T12:16:03.256Z,100506.34
2022-09-09T12:18:45.360Z,100512.66
2022-09-09T12:21:40.332Z,100507.88
2022-09-09T12:24:26.612Z,100498.31
2022-09-09T12:27:22.587Z,100500.41
2022-09-09T12:30:10.506Z,100503.16
2022-09-09T12:32:38.998Z,100498.50
2022-09-09T12:35:28.910Z,100497.09
2022-09-09T12:38:07.920Z,100493.38
2022-09-09T12:40:40.102Z,100498.72
2022-09-09T12:43:22.968Z,100488.81
2022-09-09T12:45:58.743Z,100489.78
2022-09-09T12:48:45.502Z,100482.75
2022-09-09T12:51:33.297Z,100495.50
2022-09-09T12:54:01.421Z,100495.53
2022-09-09T12:56:33.449Z,100483.09
2022-09-09T12:59:01.885Z,100486.19
2022-09-09T13:01:34.187Z,100481.81
2022-09-09T13:04:01.948Z,100485.81
2022-09-09T13:06:32.582Z,100488.53
2022-09-09T13:09:03.312Z,100495.44
2022-09-09T13:11:44.792Z,100490.25
2022-09-09T13:14:28.092Z,100489.72
2022-09-09T13:17:04.854Z,100492.72
2022-09-09T13:19:40.726Z,100497.66
2022-09-09T13:22:38.553Z,100483.78
2022-09-09T13:25:12.398Z,100494.22
2022-09-09T13:27:54.338Z,100480.16
2022-09-09T13:30:33.371Z,100479.31
2022-09-09T13:33:12.977Z,100478.84
2022-09-09T13:36:00.009Z,100473.53
2022-09-09T13:38:29.314Z,100484.84
2022-09-09T13:41:05.250Z,100472.34
2022-09-09T13:43:44.358Z,100476.31
2022-09-09T13:46:38.450Z,100470.56
2022-09-09T13:49:11.081Z,100474.03
2022-09-09T13:51:51.948Z,100464.16
2022-09-09T13:54:21.862Z,100465.94
2022-09-09T13:56:50.651Z,100458.78
2022-09-09T13:59:28.083Z,100457.00
2022-09-09T14:02:05.766Z,100460.41
2022-09-09T14:04:32.724Z,100465.94
2022-09-09T14:07:00.495Z,100471.31
2022-09-09T14:09:27.432Z,100463.13
2022-09-09T14:11:56.205Z,100460.47
2022-09-09T14:14:23.275Z,100460.00
2022-09-09T14:16:50.539Z,100458.84
2022-09-09T14:19:22.605Z,100459.28
2022-09-09T14:21:54.142Z,100468.41
2022-09-09T14:24:21.200Z,100461.31
2022-09-09T14:26:49.035Z,100464.38
2022-09-09T14:29:16.014Z,100463.06
2022-09-09T14:31:45.939Z,100452.41
2022-09-09T14:34:15.206Z,100452.78
2022-09-09T14:36:42.423Z,100449.69
2022-09-09T14:39:09.615Z,100455.03
2022-09-09T14:41:36.571Z,100446.75
2022-09-09T14:44:06.552Z,100455.03
2022-09-09T14:46:34.468Z,100464.09
2022-09-09T14:49:01.485Z,100462.25
2022-09-09T14:51:29.111Z,100463.13
2022-09-09T14:54:00.014Z,100458.06
2022-09-09T14:56:32.059Z,100453.97
2022-09-09T14:59:09.662Z,100461.06
2022-09-09T15:01:36.837Z,100462.44
2022-09-09T15:04:14.830Z,100461.31
2022-09-09T15:06:45.282Z,100460.13
2022-09-09T15:09:12.711Z,100464.34
2022-09-09T15:11:40.073Z,100462.31
2022-09-09T15:14:10.318Z,100456.31
2022-09-09T15:16:40.745Z,100461.75
2022-09-09T15:19:08.194Z,100452.56
2022-09-09T15:21:39.474Z,100445.19
2022-09-09T15:24:09.192Z,100449.41
2022-09-09T15:26:39.336Z,100453.44
2022-09-09T15:29:08.426Z,100458.66
2022-09-09T15:31:36.303Z,100457.00
2022-09-09T15:34:07.932Z,100466.47
2022-09-09T15:36:39.529Z,100469.88
2022-09-09T15:39:13.492Z,100465.41
2022-09-09T15:41:41.572Z,100462.97
2022-09-09T15:44:11.982Z,100460.28
2022-09-09T15:46:52.366Z,100442.19
2022-09-09T15:49:27.473Z,100438.25
2022-09-09T15:52:03.264Z,100433.38
2022-09-09T15:54:36.372Z,100438.69
2022-09-09T15:57:06.801Z,100433.34
2022-09-09T15:59:34.968Z,100429.94
2022-09-09T16:02:02.708Z,100430.28
2022-09-09T16:04:30.709Z,100440.69
2022-09-09T16:07:05.651Z,100444.19
2022-09-09T16:09:34.069Z,100449.44
2022-09-09T16:12:07.272Z,100450.78
2022-09-09T16:14:36.628Z,100454.41
2022-09-09T16:17:06.314Z,100460.81
2022-09-09T16:19:35.598Z,100460.13
2022-09-09T16:24:30.509Z,100468.75
2022-09-09T16:26:57.630Z,100469.59
2022-09-09T16:29:28.175Z,100475.88
2022-09-09T16:31:58.831Z,100475.16
2022-09-09T16:34:29.708Z,100476.63
2022-09-09T16:36:57.133Z,100478.75
2022-09-09T16:39:24.242Z,100477.03
2022-09-09T16:41:52.546Z,100477.88
2022-09-09T16:44:20.389Z,100471.34
2022-09-09T16:46:56.653Z,100469.38
2022-09-09T16:49:25.216Z,100458.00
2022-09-09T16:51:55.505Z,100463.25
2022-09-09T16:54:24.338Z,100459.84
2022-09-09T16:56:51.250Z,100474.44
2022-09-09T16:59:24.802Z,100471.13
2022-09-09T17:01:53.517Z,100480.09
2022-09-09T17:04:29.029Z,100472.94
2022-09-09T17:06:58.337Z,100480.19
2022-09-09T17:09:30.073Z,100482.00
2022-09-09T17:11:58.091Z,100483.81
2022-09-09T17:14:25.114Z,100482.22
2022-09-09T17:16:52.438Z,100477.41
2022-09-09T17:19:19.976Z,100475.66
2022-09-09T17:22:15.018Z,100469.56
2022-09-09T17:24:39.349Z,100472.91
2022-09-09T17:27:06.693Z,100475.50
2022-09-09T17:29:36.752Z,100474.69
2022-09-09T17:32:06.362Z,100468.38
2022-09-09T17:34:34.085Z,100462.63
2022-09-09T17:37:01.165Z,100473.66
2022-09-09T17:39:28.307Z,100466.88
2022-09-09T17:41:55.642Z,100457.94
2022-09-09T17:44:22.659Z,100453.00
2022-09-09T17:46:50.882Z,100465.03
2022-09-09T17:49:19.318Z,100472.66
2022-09-09T17:51:47.300Z,100473.53
2022-09-09T17:54:21.585Z,100469.19
2022-09-09T17:56:49.643Z,100473.03
2022-09-09T17:59:18.851Z,100468.72
2022-09-09T18:01:49.679Z,100474.03
2022-09-09T18:04:18.408Z,100477.66
2022-09-09T18:06:55.562Z,100476.66
2022-09-09T18:09:26.473Z,100470.34
2022-09-09T18:11:57.771Z,100468.63
2022-09-09T18:14:32.229Z,100470.38
2022-09-09T18:17:02.166Z,100480.75
2022-09-09T18:19:32.960Z,100489.50
2022-09-09T18:22:02.695Z,100486.47
2022-09-09T18:24:30.717Z,100489.75
2022-09-09T18:26:58.152Z,100490.25
2022-09-09T18:29:26.190Z,100492.03
2022-09-09T18:31:55.706Z,100491.00
2022-09-09T18:34:25.770Z,100504.16
2022-09-09T18:36:55.745Z,100517.78
2022-09-09T18:39:29.808Z,100523.34
2022-09-09T18:42:01.297Z,100525.44
2022-09-09T18:44:34.745Z,100531.13
2022-09-09T18:47:03.562Z,100545.41
2022-09-09T18:49:30.731Z,100539.47
2022-09-09T18:51:57.933Z,100547.13
2022-09-09T18:54:29.822Z,100553.91
2022-09-09T18:56:57.369Z,100556.06
2022-09-09T18:59:25.535Z,100563.66
2022-09-09T19:01:54.275Z,100564.66
2022-09-09T19:04:24.524Z,100563.66
2022-09-09T19:06:57.729Z,100563.66
2022-09-09T19:09:30.994Z,100565.81
2022-09-09T19:12:02.139Z,100564.41
2022-09-09T19:14:29.734Z,100563.34
2022-09-09T19:16:57.296Z,100560.09
2022-09-09T19:19:32.771Z,100570.13
2022-09-09T19:22:01.715Z,100567.84
2022-09-09T19:24:32.473Z,100567.19
2022-09-09T19:27:05.662Z,100569.81
2022-09-09T19:29:36.663Z,100571.13
2022-09-09T19:34:52.509Z,100572.88
2022-09-09T19:37:19.756Z,100560.16
2022-09-09T19:39:49.343Z,100563.88
2022-09-09T19:42:16.737Z,100561.22
2022-09-09T19:44:43.794Z,100561.75
2022-09-09T19:47:10.957Z,100558.03
2022-09-09T19:49:38.569Z,100554.63
2022-09-09T19:52:05.640Z,100559.09
2022-09-09T19:54:32.950Z,100552.66
2022-09-09T19:57:03.470Z,100547.16
2022-09-09T19:59:30.611Z,100548.28
2022-09-09T20:01:58.362Z,100561.16
2022-09-09T20:04:26.336Z,100553.38
2022-09-09T20:06:53.854Z,100562.41
2022-09-09T20:09:21.857Z,100567.16
2022-09-09T20:11:50.316Z,100557.81
2022-09-09T20:14:18.166Z,100558.22
2022-09-09T20:16:46.342Z,100559.13
2022-09-09T20:19:18.465Z,100564.75
2022-09-09T20:21:49.339Z,100565.56
2022-09-09T20:24:20.567Z,100569.41
2022-09-09T20:26:48.891Z,100569.25
2022-09-09T20:29:20.060Z,100566.88
2022-09-09T20:31:48.395Z,100562.63
2022-09-09T20:34:21.734Z,100567.75
2022-09-09T20:36:50.767Z,100569.41
2022-09-09T20:39:20.854Z,100565.41
2022-09-09T20:41:49.105Z,100569.72
2022-09-09T20:44:24.076Z,100571.97
2022-09-09T20:47:02.585Z,100568.53
2022-09-09T20:49:30.445Z,100560.91
2022-09-09T20:51:57.374Z,100559.94
2022-09-09T20:54:30.121Z,100550.97
2022-09-09T20:56:58.036Z,100544.53
2022-09-09T20:59:31.174Z,100548.38
2022-09-09T21:01:59.396Z,100543.66
2022-09-09T21:04:26.429Z,100536.94
2022-09-09T21:06:53.603Z,100534.38
2022-09-09T21:09:23.137Z,100539.28
2022-09-09T21:11:51.007Z,100533.91
2022-09-09T21:14:18.268Z,100535.00
2022-09-09T21:16:45.761Z,100535.56
2022-09-09T21:19:12.713Z,100533.53
2022-09-09T21:21:40.111Z,100537.59
2022-09-09T21:24:07.285Z,100535.19
2022-09-09T21:26:35.441Z,100535.56
2022-09-09T21:29:02.745Z,100546.50
2022-09-09T21:31:29.866Z,100543.44
2022-09-09T21:33:57.862Z,100537.75
2022-09-09T21:36:28.203Z,100551.22
2022-09-09T21:38:56.708Z,100547.84
2022-09-09T21:41:23.709Z,100554.81
2022-09-09T21:43:54.353Z,100552.34
2022-09-09T21:46:23.193Z,100563.44
2022-09-09T21:48:50.616Z,100564.66
2022-09-09T21:51:18.865Z,100566.44
2022-09-09T21:53:46.144Z,100566.84
2022-09-09T21:56:19.080Z,100560.09
2022-09-09T21:58:47.247Z,100561.47
2022-09-09T22:01:18.099Z,100572.38
2022-09-09T22:03:46.140Z,100564.63
2022-09-09T22:06:17.483Z,100562.47
2022-09-09T22:08:47.712Z,100562.44
2022-09-09T22:11:25.285Z,100561.69
2022-09-09T22:13:55.810Z,100554.22
2022-09-09T22:16:23.915Z,100552.66
2022-09-09T22:18:56.761Z,100547.56
2022-09-09T22:21:26.153Z,100551.88
2022-09-09T22:23:59.629Z,100554.09
2022-09-09T22:26:31.610Z,100557.84
2022-09-09T22:28:59.369Z,100554.53
2022-09-09T22:31:27.897Z,100546.19
2022-09-09T22:33:55.262Z,100550.28
2022-09-09T22:36:22.808Z,100547.81
2022-09-09T22:38:51.724Z,100545.31
2022-09-09T22:41:19.933Z,100549.28
2022-09-09T22:43:47.553Z,100544.97
2022-09-09T22:46:15.354Z,100539.31
2022-09-09T22:48:43.142Z,100545.59
2022-09-09T22:51:14.536Z,100546.25
2022-09-09T22:53:44.684Z,100546.56
2022-09-09T22:56:19.447Z,100546.22
2022-09-09T22:58:47.782Z,100548.41
2022-09-09T23:01:20.903Z,100554.06
2022-09-09T23:03:49.523Z,100561.28
2022-09-09T23:06:23.923Z,100563.56
2022-09-09T23:08:56.262Z,100560.03
2022-09-09T23:11:29.114Z,100559.06
2022-09-09T23:14:00.151Z,100554.81
2022-09-09T23:16:39.469Z,100551.66
2022-09-09T23:19:10.153Z,100547.41
2022-09-09T23:21:39.408Z,100539.34
2022-09-09T23:24:08.726Z,100539.88
2022-09-09T23:26:35.735Z,100536.38
2022-09-09T23:29:02.706Z,100540.88
2022-09-09T23:31:35.459Z,100540.81
2022-09-09T23:34:02.584Z,100542.22
2022-09-09T23:36:30.347Z,100543.97
2022-09-09T23:39:04.046Z,100544.16
2022-09-09T23:41:33.072Z,100543.09
2022-09-09T23:44:02.390Z,100529.84
2022-09-09T23:46:32.217Z,100538.19
2022-09-09T23:49:00.316Z,100533.97
2022-09-09T23:51:33.898Z,100526.50
2022-09-09T23:54:04.661Z,100530.81
2022-09-09T23:56:40.411Z,100527.22
2022-09-09T23:59:08.527Z,100531.50
